createdAt,value
2019-04-04T00:01:16.999Z,92240.27
2019-04-04T00:03:46.054Z,92246.31
2019-04-04T00:06:14.578Z,92243.20
2019-04-04T00:08:43.010Z,92233.72
2019-04-04T00:11:11.522Z,92227.30
2019-04-04T00:13:41.948Z,92218.50
2019-04-04T00:16:10.282Z,92222.11
2019-04-04T00:18:38.919Z,92204.20
2019-04-04T00:21:07.469Z,92172.24
2019-04-04T00:23:38.057Z,92180.55
2019-04-04T00:26:06.264Z,92160.47
2019-04-04T00:28:34.679Z,92150.81
2019-04-04T00:31:03.087Z,92146.03
2019-04-04T00:33:31.540Z,92141.25
2019-04-04T00:36:00.671Z,92150.00
2019-04-04T00:38:30.443Z,92153.27
2019-04-04T00:40:58.929Z,92153.49
2019-04-04T00:43:27.376Z,92152.46
2019-04-04T00:45:55.800Z,92137.94
2019-04-04T00:48:24.276Z,92124.98
2019-04-04T00:50:52.720Z,92115.02
2019-04-04T00:53:21.202Z,92112.95
2019-04-04T00:55:49.622Z,92115.02
2019-04-04T00:58:18.906Z,92106.31
2019-04-04T01:00:48.443Z,92084.82
2019-04-04T01:03:16.940Z,92085.09
2019-04-04T01:05:45.390Z,92074.14
2019-04-04T01:08:13.813Z,92055.95
2019-04-04T01:10:42.308Z,92071.71
2019-04-04T01:13:10.763Z,92079.61
2019-04-04T01:15:39.496Z,92077.33
2019-04-04T01:18:08.179Z,92081.48
2019-04-04T01:20:36.816Z,92080.64
2019-04-04T01:23:05.330Z,92079.29
2019-04-04T01:25:33.838Z,92091.08
2019-04-04T01:28:02.398Z,92061.41
2019-04-04T01:30:30.833Z,92042.47
2019-04-04T01:32:59.249Z,92037.16
2019-04-04T01:35:27.822Z,92042.87
2019-04-04T01:37:58.146Z,92057.73
2019-04-04T01:40:26.413Z,92057.45
2019-04-04T01:42:54.915Z,92046.23
2019-04-04T01:45:23.400Z,92030.06
2019-04-04T01:47:51.883Z,92036.45
2019-04-04T01:50:22.534Z,92041.73
2019-04-04T01:52:50.505Z,92036.08
2019-04-04T01:55:19.015Z,92026.00
2019-04-04T01:57:47.530Z,92017.95
2019-04-04T02:00:16.575Z,92014.95
2019-04-04T02:02:45.212Z,92021.84
2019-04-04T02:05:13.795Z,92014.73
2019-04-04T02:07:42.302Z,92009.16
2019-04-04T02:10:11.062Z,92012.78
2019-04-04T02:12:39.509Z,92014.27
2019-04-04T02:15:13.912Z,92007.95
2019-04-04T02:17:40.582Z,92007.58
2019-04-04T02:20:09.254Z,92008.38
2019-04-04T02:22:37.739Z,91998.42
2019-04-04T02:25:07.210Z,91976.89
2019-04-04T02:27:37.607Z,91978.89
2019-04-04T02:30:07.471Z,91998.89
2019-04-04T02:32:35.937Z,91993.09
2019-04-04T02:35:10.180Z,91977.27
2019-04-04T02:37:36.801Z,91977.00
2019-04-04T02:40:10.053Z,91984.67
2019-04-04T02:42:38.954Z,91977.16
2019-04-04T02:45:07.632Z,91965.59
2019-04-04T02:47:36.206Z,91952.65
2019-04-04T02:50:06.098Z,91943.68
2019-04-04T02:52:34.576Z,91927.16
2019-04-04T02:55:03.133Z,91902.48
2019-04-04T02:57:31.651Z,91904.28
2019-04-04T03:00:00.702Z,91906.60
2019-04-04T03:02:29.257Z,91901.02
2019-04-04T03:04:57.843Z,91904.84
2019-04-04T03:07:29.884Z,91905.21
2019-04-04T03:09:56.737Z,91909.92
2019-04-04T03:12:26.231Z,91912.20
2019-04-04T03:14:55.456Z,91903.00
2019-04-04T03:17:23.960Z,91887.97
2019-04-04T03:19:52.564Z,91882.78
2019-04-04T03:22:20.983Z,91880.97
2019-04-04T03:24:49.565Z,91876.37
2019-04-04T03:27:18.061Z,91879.58
2019-04-04T03:29:46.745Z,91881.94
2019-04-04T03:32:16.610Z,91877.36
2019-04-04T03:34:50.025Z,91885.63
2019-04-04T03:37:15.510Z,91879.41
2019-04-04T03:39:43.984Z,91870.98
2019-04-04T03:42:12.438Z,91866.59
2019-04-04T03:44:40.876Z,91862.80
2019-04-04T03:47:10.440Z,91860.63
2019-04-04T03:49:39.471Z,91862.75
2019-04-04T03:52:11.173Z,91855.20
2019-04-04T03:54:38.049Z,91862.59
2019-04-04T03:57:10.915Z,91857.72
2019-04-04T03:59:36.657Z,91861.97
2019-04-04T04:02:05.209Z,91855.80
2019-04-04T04:04:33.688Z,91858.33
2019-04-04T04:07:02.119Z,91857.00
2019-04-04T04:09:30.863Z,91850.32
2019-04-04T04:11:59.349Z,91848.50
2019-04-04T04:14:27.763Z,91853.92
2019-04-04T04:16:56.216Z,91849.34
2019-04-04T04:19:30.019Z,91842.19
2019-04-04T04:21:55.252Z,91840.11
2019-04-04T04:24:23.700Z,91827.23
2019-04-04T04:26:52.108Z,91831.89
2019-04-04T04:29:20.533Z,91830.02
2019-04-04T04:31:49.523Z,91832.78
2019-04-04T04:34:18.187Z,91832.52
2019-04-04T04:36:48.114Z,91834.89
2019-04-04T04:39:16.885Z,91829.88
2019-04-04T04:41:45.347Z,91825.09
2019-04-04T04:44:13.999Z,91819.16
2019-04-04T04:46:42.415Z,91821.38
2019-04-04T04:49:10.833Z,91813.78
2019-04-04T04:51:43.255Z,91820.09
2019-04-04T04:54:09.480Z,91806.95
2019-04-04T04:56:37.972Z,91803.89
2019-04-04T04:59:06.407Z,91804.45
2019-04-04T05:01:34.856Z,91800.02
2019-04-04T05:04:03.372Z,91807.52
2019-04-04T05:06:35.285Z,91817.72
2019-04-04T05:09:01.945Z,91814.97
2019-04-04T05:11:30.406Z,91815.34
2019-04-04T05:13:58.900Z,91820.31
2019-04-04T05:16:27.416Z,91821.94
2019-04-04T05:18:55.857Z,91805.60
2019-04-04T05:21:26.317Z,91809.31
2019-04-04T05:23:54.494Z,91816.16
2019-04-04T05:26:22.967Z,91809.83
2019-04-04T05:28:51.451Z,91811.12
2019-04-04T05:31:19.874Z,91809.39
2019-04-04T05:33:48.339Z,91816.68
2019-04-04T05:36:16.756Z,91818.31
2019-04-04T05:38:47.134Z,91822.58
2019-04-04T05:41:16.601Z,91836.71
2019-04-04T05:43:45.508Z,91842.47
2019-04-04T05:46:14.046Z,91833.64
2019-04-04T05:48:42.571Z,91839.88
2019-04-04T05:51:10.986Z,91845.67
2019-04-04T05:53:39.510Z,91849.89
2019-04-04T05:56:07.952Z,91848.98
2019-04-04T05:58:36.412Z,91854.62
2019-04-04T06:01:06.608Z,91846.34
2019-04-04T06:03:35.704Z,91841.48
2019-04-04T06:06:04.352Z,91842.12
2019-04-04T06:08:32.736Z,91847.98
2019-04-04T06:11:01.190Z,91844.30
2019-04-04T06:13:29.602Z,91851.26
2019-04-04T06:15:58.133Z,91859.39
2019-04-04T06:18:26.551Z,91854.47
2019-04-04T06:20:55.016Z,91853.27
2019-04-04T06:23:25.062Z,91860.22
2019-04-04T06:25:53.962Z,91864.98
2019-04-04T06:28:22.383Z,91865.18
2019-04-04T06:30:53.448Z,91866.69
2019-04-04T06:33:20.997Z,91878.95
2019-04-04T06:35:49.603Z,91877.41
2019-04-04T06:38:18.136Z,91872.75
2019-04-04T06:40:46.562Z,91870.52
2019-04-04T06:43:15.026Z,91873.58
2019-04-04T06:45:46.298Z,91884.75
2019-04-04T06:48:13.701Z,91873.39
2019-04-04T06:50:43.124Z,91879.37
2019-04-04T06:53:11.715Z,91896.69
2019-04-04T06:55:40.437Z,91910.39
2019-04-04T06:58:09.654Z,91915.97
2019-04-04T07:00:38.397Z,91911.59
2019-04-04T07:03:06.813Z,91898.22
2019-04-04T07:05:37.879Z,91906.20
2019-04-04T07:08:05.568Z,91897.88
2019-04-04T07:10:34.023Z,91896.45
2019-04-04T07:13:14.816Z,91899.05
2019-04-04T07:15:32.621Z,91891.07
2019-04-04T07:18:01.124Z,91893.82
2019-04-04T07:20:29.580Z,91900.03
2019-04-04T07:22:58.111Z,91896.83
2019-04-04T07:25:26.592Z,91889.89
2019-04-04T07:27:55.092Z,91900.38
2019-04-04T07:30:27.982Z,91915.05
2019-04-04T07:32:54.753Z,91930.27
2019-04-04T07:35:23.237Z,91912.30
2019-04-04T07:37:56.623Z,91909.87
2019-04-04T07:40:21.855Z,91900.89
2019-04-04T07:42:50.291Z,91897.28
2019-04-04T07:45:18.739Z,91884.75
2019-04-04T07:47:47.767Z,91875.28
2019-04-04T07:50:16.334Z,91875.95
2019-04-04T07:52:44.814Z,91884.66
2019-04-04T07:55:14.901Z,91889.06
2019-04-04T07:57:43.427Z,91890.87
2019-04-04T08:00:12.265Z,91882.73
2019-04-04T08:02:40.772Z,91887.61
2019-04-04T08:05:12.989Z,91899.27
2019-04-04T08:07:40.497Z,91905.12
2019-04-04T08:10:20.025Z,91922.35
2019-04-04T08:12:40.427Z,91927.13
2019-04-04T08:15:09.398Z,91935.30
2019-04-04T08:17:37.930Z,91947.38
2019-04-04T08:20:07.086Z,91942.41
2019-04-04T08:22:35.633Z,91943.23
2019-04-04T08:25:05.118Z,91934.59
2019-04-04T08:27:33.619Z,91918.21
2019-04-04T08:30:02.110Z,91898.02
2019-04-04T08:32:30.560Z,91877.02
2019-04-04T08:34:59.041Z,91887.45
2019-04-04T08:37:27.588Z,91870.41
2019-04-04T08:39:56.164Z,91861.48
2019-04-04T08:42:24.608Z,91881.59
2019-04-04T08:44:53.020Z,91876.34
2019-04-04T08:47:21.515Z,91878.03
2019-04-04T08:49:50.072Z,91879.20
2019-04-04T08:52:20.796Z,91882.38
2019-04-04T08:54:48.701Z,91888.31
2019-04-04T08:57:17.136Z,91872.19
2019-04-04T08:59:45.586Z,91885.20
2019-04-04T09:02:14.088Z,91884.83
2019-04-04T09:04:42.625Z,91882.55
2019-04-04T09:07:11.041Z,91893.63
2019-04-04T09:09:39.759Z,91894.19
2019-04-04T09:12:08.159Z,91901.08
2019-04-04T09:14:36.581Z,91918.33
2019-04-04T09:17:05.171Z,91925.91
2019-04-04T09:19:33.638Z,91922.12
2019-04-04T09:22:02.194Z,91917.94
2019-04-04T09:24:30.639Z,91922.34
2019-04-04T09:26:59.053Z,91924.91
2019-04-04T09:29:27.538Z,91930.52
2019-04-04T09:31:56.066Z,91933.09
2019-04-04T09:34:24.520Z,91933.90
2019-04-04T09:36:52.958Z,91935.28
2019-04-04T09:39:21.370Z,91945.87
2019-04-04T09:41:49.826Z,91951.27
2019-04-04T09:44:18.230Z,91947.08
2019-04-04T09:46:46.815Z,91951.95
2019-04-04T09:49:15.227Z,91960.44
2019-04-04T09:51:43.862Z,91963.83
2019-04-04T09:54:12.421Z,91979.20
2019-04-04T09:56:40.845Z,91989.58
2019-04-04T09:59:09.525Z,91987.15
2019-04-04T10:01:38.093Z,91984.68
2019-04-04T10:04:06.585Z,91991.77
2019-04-04T10:06:35.023Z,91981.98
2019-04-04T10:09:15.575Z,91976.20
2019-04-04T10:11:38.548Z,91979.50
2019-04-04T10:14:07.032Z,91965.63
2019-04-04T10:16:35.459Z,91954.63
2019-04-04T10:19:03.890Z,91965.69
2019-04-04T10:21:32.362Z,91965.09
2019-04-04T10:24:01.115Z,91969.30
2019-04-04T10:26:29.610Z,91966.44
2019-04-04T10:28:58.214Z,91962.52
2019-04-04T10:31:26.661Z,91945.69
2019-04-04T10:33:55.103Z,91938.84
2019-04-04T10:36:23.552Z,91927.80
2019-04-04T10:38:52.090Z,91910.36
2019-04-04T10:41:20.585Z,91914.06
2019-04-04T10:43:49.101Z,91954.70
2019-04-04T10:46:17.539Z,91956.89
2019-04-04T10:48:46.027Z,91959.87
2019-04-04T10:51:14.445Z,91965.27
2019-04-04T10:53:43.036Z,91973.74
2019-04-04T10:56:11.435Z,91974.44
2019-04-04T10:58:39.886Z,91979.58
2019-04-04T11:01:08.471Z,91981.66
2019-04-04T11:03:36.919Z,91979.21
2019-04-04T11:06:05.445Z,91971.12
2019-04-04T11:08:33.969Z,91959.20
2019-04-04T11:11:02.900Z,91964.75
2019-04-04T11:13:33.824Z,91982.15
2019-04-04T11:16:01.531Z,91984.73
2019-04-04T11:18:30.067Z,92015.09
2019-04-04T11:20:58.641Z,92024.06
2019-04-04T11:23:27.172Z,92018.26
2019-04-04T11:25:55.642Z,92019.05
2019-04-04T11:28:24.060Z,92039.38
2019-04-04T11:30:52.650Z,92051.25
2019-04-04T11:33:21.098Z,92046.06
2019-04-04T11:35:49.592Z,92046.45
2019-04-04T11:38:18.205Z,92054.04
2019-04-04T11:40:48.073Z,92078.02
2019-04-04T11:43:18.173Z,92093.10
2019-04-04T11:45:46.597Z,92087.61
2019-04-04T11:48:15.079Z,92090.41
2019-04-04T11:50:43.898Z,92072.91
2019-04-04T11:53:12.425Z,92071.72
2019-04-04T11:55:40.847Z,92074.77
2019-04-04T11:58:09.326Z,92077.56
2019-04-04T12:00:39.495Z,92080.38
2019-04-04T12:03:08.089Z,92087.00
2019-04-04T12:05:36.656Z,92100.90
2019-04-04T12:08:05.171Z,92120.77
2019-04-04T12:10:33.802Z,92117.58
2019-04-04T12:13:02.256Z,92125.53
2019-04-04T12:15:30.670Z,92123.35
2019-04-04T12:17:59.141Z,92122.52
2019-04-04T12:20:27.551Z,92119.53
2019-04-04T12:22:56.085Z,92119.73
2019-04-04T12:25:24.567Z,92110.28
2019-04-04T12:27:53.029Z,92098.19
2019-04-04T12:30:21.693Z,92100.38
2019-04-04T12:32:50.212Z,92109.27
2019-04-04T12:35:18.732Z,92124.74
2019-04-04T12:37:47.195Z,92124.75
2019-04-04T12:40:20.718Z,92126.34
2019-04-04T12:42:45.912Z,92114.95
2019-04-04T12:45:14.585Z,92112.33
2019-04-04T12:47:43.075Z,92114.95
2019-04-04T12:50:12.553Z,92118.54
2019-04-04T12:52:41.001Z,92136.69
2019-04-04T12:55:09.779Z,92133.45
2019-04-04T12:57:38.260Z,92144.22
2019-04-04T13:00:09.221Z,92141.30
2019-04-04T13:02:37.815Z,92144.70
2019-04-04T13:05:08.688Z,92154.81
2019-04-04T13:07:37.099Z,92166.91
2019-04-04T13:10:11.625Z,92174.91
2019-04-04T13:12:38.080Z,92170.52
2019-04-04T13:15:10.206Z,92164.06
2019-04-04T13:17:38.693Z,92164.50
2019-04-04T13:20:08.284Z,92164.09
2019-04-04T13:22:36.848Z,92169.11
2019-04-04T13:25:09.296Z,92159.48
2019-04-04T13:27:37.745Z,92160.91
2019-04-04T13:30:09.260Z,92150.44
2019-04-04T13:32:37.830Z,92158.53
2019-04-04T13:35:06.376Z,92137.93
2019-04-04T13:37:34.984Z,92139.11
2019-04-04T13:40:04.945Z,92150.84
2019-04-04T13:42:33.459Z,92172.91
2019-04-04T13:45:01.881Z,92184.48
2019-04-04T13:47:30.404Z,92180.28
2019-04-04T13:49:58.803Z,92185.38
2019-04-04T13:52:27.272Z,92196.66
2019-04-04T13:54:56.411Z,92195.25
2019-04-04T13:57:24.896Z,92200.40
2019-04-04T13:59:53.302Z,92208.56
2019-04-04T14:02:22.082Z,92214.37
2019-04-04T14:04:50.531Z,92221.84
2019-04-04T14:07:18.978Z,92220.52
2019-04-04T14:09:47.420Z,92220.03
2019-04-04T14:12:15.856Z,92227.44
2019-04-04T14:14:44.380Z,92231.30
2019-04-04T14:17:12.872Z,92244.14
2019-04-04T14:19:41.322Z,92247.22
2019-04-04T14:22:09.911Z,92252.37
2019-04-04T14:24:38.440Z,92267.88
2019-04-04T14:27:07.013Z,92266.49
2019-04-04T14:29:35.542Z,92272.86
2019-04-04T14:32:04.066Z,92282.19
2019-04-04T14:34:32.532Z,92285.84
2019-04-04T14:37:03.493Z,92292.91
2019-04-04T14:39:31.289Z,92294.37
2019-04-04T14:42:00.094Z,92288.98
2019-04-04T14:44:30.243Z,92307.20
2019-04-04T14:46:58.740Z,92295.37
2019-04-04T14:49:27.174Z,92300.61
2019-04-04T14:51:55.591Z,92294.55
2019-04-04T14:54:24.251Z,92293.33
2019-04-04T14:56:52.710Z,92292.08
2019-04-04T14:59:21.212Z,92293.11
2019-04-04T15:01:49.711Z,92298.98
2019-04-04T15:04:18.205Z,92293.80
2019-04-04T15:06:46.736Z,92292.34
2019-04-04T15:09:15.301Z,92297.20
2019-04-04T15:11:43.733Z,92296.91
2019-04-04T15:14:12.251Z,92301.57
2019-04-04T15:16:40.709Z,92305.46
2019-04-04T15:19:09.251Z,92302.64
2019-04-04T15:21:37.746Z,92292.34
2019-04-04T15:24:06.301Z,92297.59
2019-04-04T15:26:34.835Z,92308.73
2019-04-04T15:29:03.328Z,92309.22
2019-04-04T15:31:31.784Z,92318.97
2019-04-04T15:34:00.205Z,92318.92
2019-04-04T15:36:28.621Z,92327.38
2019-04-04T15:38:57.093Z,92310.28
2019-04-04T15:41:36.312Z,92300.36
2019-04-04T15:43:55.782Z,92287.16
2019-04-04T15:46:24.185Z,92294.59
2019-04-04T15:48:52.640Z,92307.16
2019-04-04T15:51:21.173Z,92303.80
2019-04-04T15:53:49.608Z,92307.16
2019-04-04T15:56:18.055Z,92317.30
2019-04-04T15:58:46.472Z,92331.72
2019-04-04T16:01:15.022Z,92348.36
2019-04-04T16:03:43.426Z,92345.49
2019-04-04T16:06:11.924Z,92358.02
2019-04-04T16:08:40.461Z,92362.98
2019-04-04T16:11:08.995Z,92369.34
2019-04-04T16:13:37.365Z,92379.89
2019-04-04T16:16:06.073Z,92387.27
2019-04-04T16:18:34.511Z,92385.14
2019-04-04T16:21:03.029Z,92389.00
2019-04-04T16:23:31.573Z,92383.94
2019-04-04T16:26:00.123Z,92388.30
2019-04-04T16:28:28.557Z,92395.80
2019-04-04T16:30:57.014Z,92391.59
2019-04-04T16:33:26.578Z,92388.06
2019-04-04T16:35:55.171Z,92393.09
2019-04-04T16:38:27.452Z,92390.89
2019-04-04T16:40:56.213Z,92382.41
2019-04-04T16:43:24.680Z,92382.41
2019-04-04T16:45:53.116Z,92385.55
2019-04-04T16:48:21.595Z,92389.31
2019-04-04T16:50:50.121Z,92389.98
2019-04-04T16:53:18.644Z,92388.95
2019-04-04T16:55:47.119Z,92386.92
2019-04-04T16:58:15.886Z,92383.70
2019-04-04T17:00:44.302Z,92394.00
2019-04-04T17:03:12.744Z,92401.27
2019-04-04T17:05:41.225Z,92406.16
2019-04-04T17:08:09.681Z,92408.02
2019-04-04T17:10:38.273Z,92404.00
2019-04-04T17:13:06.825Z,92409.75
2019-04-04T17:15:35.257Z,92411.89
2019-04-04T17:18:03.849Z,92416.09
2019-04-04T17:20:32.286Z,92424.91
2019-04-04T17:23:00.695Z,92429.54
2019-04-04T17:25:29.249Z,92427.69
2019-04-04T17:27:57.785Z,92429.78
2019-04-04T17:30:26.562Z,92429.54
2019-04-04T17:32:55.394Z,92423.97
2019-04-04T17:35:24.581Z,92414.66
2019-04-04T17:37:53.504Z,92424.73
2019-04-04T17:40:22.048Z,92436.44
2019-04-04T17:42:50.723Z,92446.45
2019-04-04T17:45:19.630Z,92461.54
2019-04-04T17:47:47.994Z,92453.66
2019-04-04T17:50:19.191Z,92446.45
2019-04-04T17:52:48.227Z,92442.34
2019-04-04T17:55:16.985Z,92442.98
2019-04-04T17:57:45.543Z,92429.70
2019-04-04T18:00:16.260Z,92430.85
2019-04-04T18:02:44.748Z,92446.05
2019-04-04T18:05:13.636Z,92456.19
2019-04-04T18:07:42.175Z,92459.09
2019-04-04T18:10:11.183Z,92471.69
2019-04-04T18:12:40.850Z,92461.16
2019-04-04T18:15:10.888Z,92456.39
2019-04-04T18:17:39.488Z,92460.44
2019-04-04T18:20:08.618Z,92460.91
2019-04-04T18:22:37.481Z,92452.25
2019-04-04T18:25:06.979Z,92447.07
2019-04-04T18:27:35.418Z,92459.44
2019-04-04T18:30:11.514Z,92472.96
2019-04-04T18:32:40.051Z,92470.03
2019-04-04T18:35:09.534Z,92469.10
2019-04-04T18:37:38.217Z,92472.92
2019-04-04T18:40:08.483Z,92480.38
2019-04-04T18:42:37.046Z,92491.09
2019-04-04T18:45:07.246Z,92495.41
2019-04-04T18:47:35.663Z,92489.12
2019-04-04T18:50:05.811Z,92487.44
2019-04-04T18:52:34.312Z,92480.78
2019-04-04T18:55:02.804Z,92477.82
2019-04-04T18:57:31.278Z,92476.58
2019-04-04T18:59:59.771Z,92486.28
2019-04-04T19:02:28.277Z,92478.52
2019-04-04T19:04:56.721Z,92483.67
2019-04-04T19:07:25.292Z,92481.25
2019-04-04T19:09:53.879Z,92479.38
2019-04-04T19:12:22.381Z,92483.69
2019-04-04T19:14:50.808Z,92487.72
2019-04-04T19:17:19.363Z,92491.27
2019-04-04T19:19:47.766Z,92500.27
2019-04-04T19:22:16.269Z,92511.89
2019-04-04T19:24:44.724Z,92516.98
2019-04-04T19:27:13.402Z,92523.50
2019-04-04T19:29:41.909Z,92536.27
2019-04-04T19:32:10.721Z,92531.48
2019-04-04T19:34:39.282Z,92529.53
2019-04-04T19:37:07.799Z,92534.05
2019-04-04T19:39:36.290Z,92534.44
2019-04-04T19:42:05.305Z,92535.36
2019-04-04T19:44:34.105Z,92534.46
2019-04-04T19:47:02.630Z,92525.38
2019-04-04T19:49:31.045Z,92526.43
2019-04-04T19:51:59.531Z,92529.39
2019-04-04T19:54:28.010Z,92528.68
2019-04-04T19:56:56.577Z,92527.88
2019-04-04T19:59:25.067Z,92535.32
2019-04-04T20:01:53.533Z,92533.27
2019-04-04T20:04:22.159Z,92535.55
2019-04-04T20:06:50.633Z,92530.80
2019-04-04T20:09:19.141Z,92536.20
2019-04-04T20:11:47.557Z,92540.72
2019-04-04T20:14:16.074Z,92541.97
2019-04-04T20:16:44.635Z,92538.45
2019-04-04T20:19:13.067Z,92549.83
2019-04-04T20:21:41.506Z,92557.45
2019-04-04T20:24:10.005Z,92555.34
2019-04-04T20:26:38.584Z,92557.59
2019-04-04T20:29:07.098Z,92554.37
2019-04-04T20:31:35.578Z,92557.55
2019-04-04T20:34:05.971Z,92557.23
2019-04-04T20:36:34.334Z,92565.36
2019-04-04T20:39:03.120Z,92565.70
2019-04-04T20:41:31.578Z,92560.72
2019-04-04T20:44:00.060Z,92569.58
2019-04-04T20:46:28.584Z,92574.76
2019-04-04T20:48:57.065Z,92584.19
2019-04-04T20:51:25.591Z,92587.30
2019-04-04T20:53:54.011Z,92594.22
2019-04-04T20:56:22.493Z,92594.22
2019-04-04T20:58:51.012Z,92586.25
2019-04-04T21:01:19.450Z,92594.06
2019-04-04T21:03:47.941Z,92594.75
2019-04-04T21:06:16.410Z,92595.03
2019-04-04T21:08:44.837Z,92584.93
2019-04-04T21:11:13.266Z,92587.52
2019-04-04T21:13:42.080Z,92592.06
2019-04-04T21:16:10.590Z,92582.68
2019-04-04T21:18:39.105Z,92573.60
2019-04-04T21:21:07.588Z,92585.48
2019-04-04T21:23:36.268Z,92584.30
2019-04-04T21:26:04.762Z,92583.44
2019-04-04T21:28:33.249Z,92580.46
2019-04-04T21:31:01.769Z,92581.44
2019-04-04T21:33:30.187Z,92590.43
2019-04-04T21:35:59.084Z,92604.69
2019-04-04T21:38:27.521Z,92603.59
2019-04-04T21:40:55.961Z,92599.92
2019-04-04T21:43:25.431Z,92592.27
2019-04-04T21:45:53.845Z,92606.56
2019-04-04T21:48:22.299Z,92619.30
2019-04-04T21:50:50.782Z,92630.77
2019-04-04T21:53:19.199Z,92625.93
2019-04-04T21:55:47.652Z,92633.00
2019-04-04T21:58:16.239Z,92637.73
2019-04-04T22:00:45.189Z,92632.44
2019-04-04T22:03:13.796Z,92644.13
2019-04-04T22:05:42.495Z,92647.93
2019-04-04T22:08:10.908Z,92651.09
2019-04-04T22:10:39.457Z,92647.69
2019-04-04T22:13:07.905Z,92640.26
2019-04-04T22:15:36.655Z,92646.73
2019-04-04T22:18:05.252Z,92641.06
2019-04-04T22:20:33.680Z,92643.16
2019-04-04T22:23:02.213Z,92643.84
2019-04-04T22:25:30.663Z,92651.21
2019-04-04T22:27:59.075Z,92650.60
2019-04-04T22:30:27.554Z,92648.98
2019-04-04T22:32:56.327Z,92645.47
2019-04-04T22:35:24.817Z,92634.39
2019-04-04T22:37:53.341Z,92640.58
2019-04-04T22:40:23.295Z,92637.73
2019-04-04T22:42:51.715Z,92630.83
2019-04-04T22:45:20.286Z,92627.55
2019-04-04T22:47:48.779Z,92626.02
2019-04-04T22:50:17.300Z,92619.95
2019-04-04T22:52:45.722Z,92621.86
2019-04-04T22:55:14.300Z,92615.06
2019-04-04T22:57:42.713Z,92607.63
2019-04-04T23:00:11.436Z,92610.82
2019-04-04T23:02:40.146Z,92616.77
2019-04-04T23:05:08.801Z,92617.38
2019-04-04T23:07:37.257Z,92606.06
2019-04-04T23:10:07.700Z,92615.80
2019-04-04T23:12:36.192Z,92615.00
2019-04-04T23:15:09.338Z,92617.38
2019-04-04T23:17:37.766Z,92613.90
2019-04-04T23:20:08.940Z,92612.61
2019-04-04T23:22:37.682Z,92615.20
2019-04-04T23:25:07.863Z,92612.33
2019-04-04T23:27:36.363Z,92613.50
2019-04-04T23:30:06.661Z,92619.16
2019-04-04T23:32:35.180Z,92613.66
2019-04-04T23:35:04.398Z,92613.83
2019-04-04T23:37:32.826Z,92615.97
2019-04-04T23:40:01.249Z,92615.64
2019-04-04T23:42:29.780Z,92612.41
2019-04-04T23:45:01.283Z,92615.97
2019-04-04T23:47:28.513Z,92616.17
2019-04-04T23:49:56.972Z,92616.00
2019-04-04T23:52:25.428Z,92612.80
2019-04-04T23:54:53.874Z,92603.95
2019-04-04T23:57:22.329Z,92606.09
2019-04-04T23:59:50.749Z,92604.51
